Milngavie, United Kingdom
Current Conditions -  °F | °C
As of 6:20 PM on Wednesday 26 Nov 2014 (Local Time) from EGPF Reporting Station
Drizzle Drizzle  
Wind Chill: 41°   Ceiling: 1000
Heat Index: 41°   Visibility: 2.7mi
Dew Point: 41°   Wind: 1mph
Humidity: 100%   Direction: 90°E
Pressure: 29.85"   Gusts: NA
Location:  55.94°N, 4.32°W
Report Text: EGPF 261820Z AUTO 09001KT 4400 -DZ BKN010 OVC033 05/05 Q1011 REDZ
Loading
Personal Weather Stations






























Interactive Weather Map New forecast layout! Learn more

10-Day Weather Forecast

Advertisements
Track Severe Weather on mobile